createdAt,value
2022-10-06T00:01:21.463Z,101511.63
2022-10-06T00:04:36.651Z,101508.41
2022-10-06T00:07:38.645Z,101516.66
2022-10-06T00:10:54.646Z,101503.22
2022-10-06T00:14:09.641Z,101499.81
2022-10-06T00:17:11.535Z,101504.28
2022-10-06T00:20:27.639Z,101514.19
2022-10-06T00:23:35.648Z,101513.41
2022-10-06T00:26:50.642Z,101509.13
2022-10-06T00:29:58.629Z,101498.37
2022-10-06T00:33:07.211Z,101512.06
2022-10-06T00:36:28.712Z,101509.97
2022-10-06T00:39:43.647Z,101509.97
2022-10-06T00:42:56.055Z,101507.78
2022-10-06T00:46:10.710Z,101509.38
2022-10-06T00:49:29.679Z,101503.19
2022-10-06T00:52:46.648Z,101508.50
2022-10-06T00:56:02.648Z,101509.81
2022-10-06T00:59:15.651Z,101508.69
2022-10-06T01:02:37.741Z,101509.50
2022-10-06T01:05:50.937Z,101509.22
2022-10-06T01:08:59.177Z,101510.47
2022-10-06T01:12:10.640Z,101510.63
2022-10-06T01:15:20.909Z,101512.53
2022-10-06T01:18:38.666Z,101514.69
2022-10-06T01:21:46.632Z,101505.47
2022-10-06T01:25:02.652Z,101510.78
2022-10-06T01:28:14.708Z,101506.75
2022-10-06T01:31:23.996Z,101513.66
2022-10-06T01:34:38.636Z,101513.62
2022-10-06T01:37:53.651Z,101512.25
2022-10-06T01:41:08.630Z,101506.34
2022-10-06T01:44:16.645Z,101513.25
2022-10-06T01:47:31.648Z,101504.56
2022-10-06T01:50:47.684Z,101522.53
2022-10-06T01:53:55.661Z,101520.28
2022-10-06T01:57:08.550Z,101531.78
2022-10-06T02:00:18.643Z,101530.44
2022-10-06T02:03:27.229Z,101522.41
2022-10-06T02:06:35.684Z,101521.81
2022-10-06T02:09:44.185Z,101530.06
2022-10-06T02:12:59.663Z,101528.19
2022-10-06T02:16:07.694Z,101513.56
2022-10-06T02:19:22.622Z,101527.56
2022-10-06T02:22:30.664Z,101530.69
2022-10-06T02:25:45.636Z,101528.50
2022-10-06T02:28:54.300Z,101537.84
2022-10-06T02:32:02.670Z,101536.25
2022-10-06T02:35:24.658Z,101535.66
2022-10-06T02:38:39.647Z,101538.59
2022-10-06T02:41:54.661Z,101537.47
2022-10-06T02:45:05.478Z,101537.00
2022-10-06T02:48:14.663Z,101544.50
2022-10-06T02:51:23.722Z,101535.28
2022-10-06T02:54:31.649Z,101536.66
2022-10-06T02:57:46.653Z,101537.94
2022-10-06T03:00:48.527Z,101536.34
2022-10-06T03:04:03.631Z,101538.69
2022-10-06T03:07:11.665Z,101545.41
2022-10-06T03:10:20.556Z,101538.47
2022-10-06T03:13:28.670Z,101536.53
2022-10-06T03:16:46.645Z,101534.66
2022-10-06T03:19:48.535Z,101533.78
2022-10-06T03:23:03.653Z,101540.25
2022-10-06T03:26:05.492Z,101534.56
2022-10-06T03:29:20.641Z,101542.00
2022-10-06T03:32:35.634Z,101538.16
2022-10-06T03:35:43.878Z,101542.13
2022-10-06T03:38:59.653Z,101541.56
2022-10-06T03:42:07.661Z,101539.16
2022-10-06T03:45:16.326Z,101534.81
2022-10-06T03:48:24.645Z,101537.69
2022-10-06T03:51:39.030Z,101535.28
2022-10-06T03:54:53.649Z,101535.19
2022-10-06T03:58:01.653Z,101529.78
2022-10-06T04:01:26.183Z,101534.63
2022-10-06T04:04:41.638Z,101530.84
2022-10-06T04:07:56.665Z,101534.63
2022-10-06T04:11:18.633Z,101535.13
2022-10-06T04:14:27.240Z,101545.34
2022-10-06T04:17:35.652Z,101548.75
2022-10-06T04:20:44.142Z,101551.16
2022-10-06T04:24:00.641Z,101551.97
2022-10-06T04:27:02.452Z,101556.50
2022-10-06T04:30:18.632Z,101559.69
2022-10-06T04:33:26.658Z,101562.19
2022-10-06T04:36:49.654Z,101554.34
2022-10-06T04:40:02.020Z,101560.62
2022-10-06T04:43:23.694Z,101554.16
2022-10-06T04:46:49.184Z,101551.97
2022-10-06T04:50:03.629Z,101550.84
2022-10-06T04:53:12.717Z,101553.69
2022-10-06T04:56:33.669Z,101556.38
2022-10-06T04:59:48.680Z,101558.69
2022-10-06T05:02:57.149Z,101560.06
2022-10-06T05:06:42.640Z,101560.88
2022-10-06T05:09:57.651Z,101556.84
2022-10-06T05:12:59.397Z,101560.56
2022-10-06T05:16:17.652Z,101560.88
2022-10-06T05:19:32.647Z,101562.84
2022-10-06T05:22:34.364Z,101562.91
2022-10-06T05:25:57.633Z,101556.03
2022-10-06T05:29:12.629Z,101544.28
2022-10-06T05:32:14.448Z,101545.16
2022-10-06T05:35:29.623Z,101563.13
2022-10-06T05:38:39.342Z,101564.91
2022-10-06T05:41:53.656Z,101570.50
2022-10-06T05:45:02.193Z,101563.97
2022-10-06T05:48:11.645Z,101578.34
2022-10-06T05:51:30.553Z,101578.00
2022-10-06T05:54:45.623Z,101575.53
2022-10-06T05:58:01.664Z,101585.09
2022-10-06T06:01:07.346Z,101577.81
2022-10-06T06:04:21.694Z,101584.62
2022-10-06T06:07:36.651Z,101582.31
2022-10-06T06:10:39.179Z,101575.94
2022-10-06T06:13:53.626Z,101583.00
2022-10-06T06:17:08.680Z,101593.50
2022-10-06T06:20:23.633Z,101588.19
2022-10-06T06:23:30.265Z,101603.03
2022-10-06T06:26:45.636Z,101608.66
2022-10-06T06:29:47.529Z,101611.66
2022-10-06T06:33:02.648Z,101611.66
2022-10-06T06:36:19.166Z,101610.31
2022-10-06T06:39:27.650Z,101622.12
2022-10-06T06:42:36.127Z,101625.38
2022-10-06T06:45:44.931Z,101631.28
2022-10-06T06:48:55.622Z,101624.66
2022-10-06T06:52:11.632Z,101631.09
2022-10-06T06:55:19.657Z,101632.19
2022-10-06T06:58:28.825Z,101628.75
2022-10-06T07:01:48.784Z,101634.72
2022-10-06T07:04:57.667Z,101642.53
2022-10-06T07:08:07.751Z,101642.06
2022-10-06T07:11:27.643Z,101643.47
2022-10-06T07:14:35.653Z,101633.31
2022-10-06T07:17:44.308Z,101640.59
2022-10-06T07:20:52.640Z,101648.41
2022-10-06T07:24:07.674Z,101651.16
2022-10-06T07:27:16.203Z,101629.16
2022-10-06T07:30:28.656Z,101642.78
2022-10-06T07:33:37.127Z,101644.50
2022-10-06T07:36:51.636Z,101660.50
2022-10-06T07:40:00.719Z,101663.47
2022-10-06T07:43:15.846Z,101663.44
2022-10-06T07:46:24.728Z,101644.53
2022-10-06T07:49:33.527Z,101661.13
2022-10-06T07:52:41.631Z,101666.31
2022-10-06T07:55:56.653Z,101664.00
2022-10-06T07:59:06.103Z,101664.91
2022-10-06T08:02:15.743Z,101669.03
2022-10-06T08:05:24.247Z,101673.84
2022-10-06T08:08:33.647Z,101675.38
2022-10-06T08:11:48.620Z,101683.28
2022-10-06T08:15:07.063Z,101683.47
2022-10-06T08:18:44.349Z,101676.69
2022-10-06T08:22:02.403Z,101673.13
2022-10-06T08:25:19.630Z,101686.09
2022-10-06T08:28:34.726Z,101667.19
2022-10-06T08:31:43.305Z,101675.56
2022-10-06T08:34:58.243Z,101678.47
2022-10-06T08:38:13.669Z,101680.44
2022-10-06T08:41:25.351Z,101675.94
2022-10-06T08:44:47.649Z,101674.09
2022-10-06T08:48:28.705Z,101675.44
2022-10-06T08:52:00.343Z,101665.97
2022-10-06T08:55:52.681Z,101674.53
2022-10-06T08:59:10.657Z,101676.47
2022-10-06T09:02:29.101Z,101672.25
2022-10-06T09:05:43.661Z,101672.66
2022-10-06T09:08:59.652Z,101677.78
2022-10-06T09:12:14.149Z,101678.19
2022-10-06T09:15:50.702Z,101675.97
2022-10-06T09:19:13.864Z,101685.72
2022-10-06T09:22:27.733Z,101685.63
2022-10-06T09:25:44.717Z,101684.66
2022-10-06T09:28:46.887Z,101685.19
2022-10-06T09:32:01.763Z,101676.81
2022-10-06T09:35:28.680Z,101690.06
2022-10-06T09:38:52.669Z,101682.62
2022-10-06T09:42:03.878Z,101683.22
2022-10-06T09:45:31.652Z,101678.88
2022-10-06T09:48:46.654Z,101689.78
2022-10-06T09:52:21.668Z,101692.09
2022-10-06T09:55:32.672Z,101683.69
2022-10-06T09:59:00.695Z,101692.31
2022-10-06T10:02:41.685Z,101689.69
2022-10-06T10:05:58.665Z,101689.59
2022-10-06T10:09:25.679Z,101690.53
2022-10-06T10:12:40.659Z,101695.50
2022-10-06T10:16:01.032Z,101684.81
2022-10-06T10:19:33.651Z,101683.47
2022-10-06T10:22:47.693Z,101685.34
2022-10-06T10:26:04.414Z,101684.87
2022-10-06T10:29:37.661Z,101676.28
2022-10-06T10:33:02.703Z,101680.84
2022-10-06T10:36:18.952Z,101679.16
2022-10-06T10:39:42.691Z,101670.69
2022-10-06T10:43:03.698Z,101654.22
2022-10-06T10:46:22.712Z,101655.22
2022-10-06T10:49:40.698Z,101663.22
2022-10-06T10:52:45.744Z,101666.91
2022-10-06T10:56:00.687Z,101665.13
2022-10-06T10:59:24.840Z,101666.47
2022-10-06T11:02:34.689Z,101666.69
2022-10-06T11:06:25.401Z,101661.13
2022-10-06T11:09:59.693Z,101666.88
2022-10-06T11:13:37.692Z,101660.13
2022-10-06T11:17:12.569Z,101665.19
2022-10-06T11:20:44.712Z,101665.47
2022-10-06T11:24:02.941Z,101658.81
2022-10-06T11:27:33.697Z,101656.78
2022-10-06T11:30:59.668Z,101656.25
2022-10-06T11:34:16.665Z,101655.84
2022-10-06T11:37:27.964Z,101655.25
2022-10-06T11:40:54.686Z,101649.94
2022-10-06T11:44:33.701Z,101646.38
2022-10-06T11:47:56.053Z,101646.87
2022-10-06T11:51:40.684Z,101633.37
2022-10-06T11:55:22.674Z,101647.78
2022-10-06T11:58:41.850Z,101648.06
2022-10-06T12:01:52.806Z,101644.56
2022-10-06T12:05:54.861Z,101640.91
2022-10-06T12:08:47.693Z,101639.19
2022-10-06T12:11:56.167Z,101641.69
2022-10-06T12:20:12.718Z,101640.63
2022-10-06T12:23:48.757Z,101630.37
2022-10-06T12:27:36.684Z,101626.25
2022-10-06T12:31:17.845Z,101629.28
2022-10-06T12:34:56.940Z,101618.50
2022-10-06T12:38:32.810Z,101634.16
2022-10-06T12:42:08.680Z,101624.53
2022-10-06T12:45:17.198Z,101626.44
2022-10-06T12:48:37.694Z,101619.56
2022-10-06T12:51:48.682Z,101623.94
2022-10-06T12:55:06.427Z,101600.75
2022-10-06T12:58:36.677Z,101612.44
2022-10-06T13:01:44.718Z,101604.31
2022-10-06T13:05:02.473Z,101604.78
2022-10-06T13:08:30.721Z,101598.53
2022-10-06T13:11:32.642Z,101599.16
2022-10-06T13:14:48.712Z,101603.37
2022-10-06T13:18:17.090Z,101607.28
2022-10-06T13:21:25.705Z,101587.44
2022-10-06T13:24:40.692Z,101590.00
2022-10-06T13:27:49.355Z,101599.03
2022-10-06T13:31:09.685Z,101589.28
2022-10-06T13:34:33.686Z,101595.00
2022-10-06T13:37:42.167Z,101587.16
2022-10-06T13:41:29.729Z,101587.44
2022-10-06T13:44:39.107Z,101582.94
2022-10-06T13:47:53.696Z,101577.28
2022-10-06T13:51:01.675Z,101574.88
2022-10-06T13:54:51.703Z,101583.03
2022-10-06T13:58:09.214Z,101584.44
2022-10-06T14:01:37.753Z,101581.88
2022-10-06T14:04:45.757Z,101580.47
2022-10-06T14:08:04.702Z,101587.06
2022-10-06T14:11:13.273Z,101569.81
2022-10-06T14:14:23.697Z,101582.81
2022-10-06T14:17:32.238Z,101587.94
2022-10-06T14:20:52.701Z,101580.06
2022-10-06T14:24:10.140Z,101591.56
2022-10-06T14:27:24.743Z,101596.66
2022-10-06T14:30:39.761Z,101604.16
2022-10-06T14:33:56.695Z,101601.09
2022-10-06T14:37:11.718Z,101593.88
2022-10-06T14:40:20.204Z,101593.19
2022-10-06T14:43:28.706Z,101599.06
2022-10-06T14:46:45.758Z,101598.88
2022-10-06T14:49:54.340Z,101608.44
2022-10-06T14:53:02.751Z,101603.63
2022-10-06T14:56:18.710Z,101607.75
2022-10-06T14:59:27.862Z,101599.56
2022-10-06T15:02:42.799Z,101612.56
2022-10-06T15:05:57.721Z,101606.75
2022-10-06T15:08:59.665Z,101608.12
2022-10-06T15:12:14.733Z,101610.59
2022-10-06T15:15:29.724Z,101608.28
2022-10-06T15:18:32.930Z,101599.19
2022-10-06T15:21:49.723Z,101614.66
2022-10-06T15:25:04.732Z,101618.69
2022-10-06T15:28:13.823Z,101610.06
2022-10-06T15:31:30.872Z,101624.03
2022-10-06T15:34:45.728Z,101620.94
2022-10-06T15:37:53.955Z,101625.94
2022-10-06T15:41:09.731Z,101624.72
2022-10-06T15:44:19.330Z,101618.72
2022-10-06T15:47:27.712Z,101631.69
2022-10-06T15:50:43.733Z,101628.56
2022-10-06T15:53:45.476Z,101640.88
2022-10-06T15:57:02.749Z,101646.69
2022-10-06T16:00:18.850Z,101643.59
2022-10-06T16:03:20.632Z,101643.59
2022-10-06T16:06:35.708Z,101647.09
2022-10-06T16:09:43.028Z,101655.44
2022-10-06T16:12:58.728Z,101664.00
2022-10-06T16:16:00.584Z,101670.63
2022-10-06T16:19:15.732Z,101667.84
2022-10-06T16:22:30.741Z,101653.66
2022-10-06T16:25:45.736Z,101671.13
2022-10-06T16:28:54.738Z,101667.75
2022-10-06T16:32:03.303Z,101679.38
2022-10-06T16:35:18.564Z,101670.53
2022-10-06T16:38:26.992Z,101670.03
2022-10-06T16:41:41.826Z,101680.19
2022-10-06T16:44:56.730Z,101686.00
2022-10-06T16:48:05.367Z,101681.66
2022-10-06T16:51:18.752Z,101687.59
2022-10-06T16:54:27.332Z,101695.81
2022-10-06T16:57:41.739Z,101699.19
2022-10-06T17:00:50.851Z,101696.78
2022-10-06T17:04:10.808Z,101706.59
2022-10-06T17:07:25.739Z,101701.31
2022-10-06T17:10:27.628Z,101707.69
2022-10-06T17:13:48.743Z,101705.91
2022-10-06T17:16:58.103Z,101717.44
2022-10-06T17:20:12.761Z,101717.00
2022-10-06T17:23:20.751Z,101713.03
2022-10-06T17:26:40.758Z,101715.53
2022-10-06T17:29:49.751Z,101719.31
2022-10-06T17:32:58.294Z,101712.69
2022-10-06T17:36:13.747Z,101717.78
2022-10-06T17:39:29.774Z,101717.22
2022-10-06T17:42:38.482Z,101712.06
2022-10-06T17:45:53.806Z,101712.31
2022-10-06T17:49:04.288Z,101712.25
2022-10-06T17:52:23.936Z,101715.16
2022-10-06T17:55:42.013Z,101708.44
2022-10-06T17:58:56.007Z,101722.41
2022-10-06T18:02:11.169Z,101715.91
2022-10-06T18:05:28.479Z,101707.19
2022-10-06T18:08:34.428Z,101698.09
2022-10-06T18:11:50.007Z,101704.13
2022-10-06T18:14:58.227Z,101694.00
2022-10-06T18:18:06.761Z,101712.06
2022-10-06T18:21:15.882Z,101716.72
2022-10-06T18:24:26.759Z,101721.31
2022-10-06T18:27:41.976Z,101715.66
2022-10-06T18:30:50.965Z,101716.78
2022-10-06T18:37:42.365Z,101706.12
2022-10-06T18:40:57.253Z,101724.72
2022-10-06T18:44:11.804Z,101727.81
2022-10-06T18:47:15.333Z,101729.28
2022-10-06T18:50:33.738Z,101729.97
2022-10-06T18:53:41.759Z,101734.38
2022-10-06T18:56:58.119Z,101743.88
2022-10-06T19:00:08.693Z,101745.25
2022-10-06T19:03:17.855Z,101744.22
2022-10-06T19:06:29.102Z,101751.87
2022-10-06T19:09:46.915Z,101749.25
2022-10-06T19:12:55.813Z,101753.50
2022-10-06T19:16:04.836Z,101750.94
2022-10-06T19:19:16.135Z,101738.47
2022-10-06T19:22:24.459Z,101742.28
2022-10-06T19:25:39.944Z,101741.87
2022-10-06T19:28:49.130Z,101743.06
2022-10-06T19:31:59.043Z,101741.03
2022-10-06T19:35:14.105Z,101725.72
2022-10-06T19:38:31.143Z,101734.41
2022-10-06T19:41:39.962Z,101747.38
2022-10-06T19:44:48.771Z,101755.25
2022-10-06T19:48:03.763Z,101755.00
2022-10-06T19:51:17.608Z,101760.41
2022-10-06T19:54:25.747Z,101760.72
2022-10-06T19:57:41.985Z,101764.22
2022-10-06T20:00:50.494Z,101765.31
2022-10-06T20:04:05.853Z,101765.34
2022-10-06T20:07:14.245Z,101770.47
2022-10-06T20:10:22.773Z,101770.78
2022-10-06T20:13:42.745Z,101770.53
2022-10-06T20:16:52.993Z,101775.16
2022-10-06T20:20:01.749Z,101777.31
2022-10-06T20:23:10.242Z,101781.09
2022-10-06T20:26:21.756Z,101772.22
2022-10-06T20:29:36.751Z,101772.22
2022-10-06T20:32:44.807Z,101783.75
2022-10-06T20:35:53.229Z,101770.28
2022-10-06T20:39:17.756Z,101774.31
2022-10-06T20:42:21.128Z,101780.00
2022-10-06T20:45:35.756Z,101787.59
2022-10-06T20:48:50.775Z,101783.25
2022-10-06T20:51:59.291Z,101780.25
2022-10-06T20:55:14.774Z,101799.91
2022-10-06T20:58:29.758Z,101803.44
2022-10-06T21:01:39.458Z,101792.34
2022-10-06T21:04:47.848Z,101798.56
2022-10-06T21:07:56.369Z,101788.03
2022-10-06T21:11:10.849Z,101789.66
2022-10-06T21:14:20.884Z,101791.00
2022-10-06T21:17:29.551Z,101795.59
2022-10-06T21:20:46.924Z,101796.41
2022-10-06T21:23:48.815Z,101803.16
2022-10-06T21:27:03.832Z,101789.69
2022-10-06T21:30:18.839Z,101792.44
2022-10-06T21:33:27.869Z,101803.78
2022-10-06T21:36:49.836Z,101802.16
2022-10-06T21:40:04.860Z,101789.78
2022-10-06T21:43:20.860Z,101795.72
2022-10-06T21:46:40.947Z,101791.16
2022-10-06T21:49:49.864Z,101785.81
2022-10-06T21:52:58.399Z,101779.06
2022-10-06T21:56:06.852Z,101791.44
2022-10-06T21:59:21.880Z,101792.81
2022-10-06T22:02:23.847Z,101781.81
2022-10-06T22:05:41.852Z,101799.63
2022-10-06T22:08:50.873Z,101798.28
2022-10-06T22:12:05.855Z,101796.13
2022-10-06T22:15:14.857Z,101793.41
2022-10-06T22:18:23.710Z,101798.03
2022-10-06T22:21:41.863Z,101800.97
2022-10-06T22:24:56.869Z,101796.41
2022-10-06T22:28:05.495Z,101796.13
2022-10-06T22:31:25.529Z,101799.09
2022-10-06T22:34:36.721Z,101803.16
2022-10-06T22:37:51.851Z,101787.25
2022-10-06T22:41:01.883Z,101800.16
2022-10-06T22:44:16.848Z,101795.34
2022-10-06T22:47:24.879Z,101787.25
2022-10-06T22:50:33.441Z,101782.44
2022-10-06T22:53:41.871Z,101784.03
2022-10-06T22:56:50.329Z,101763.84
2022-10-06T23:00:04.870Z,101775.19
2022-10-06T23:03:07.479Z,101782.19
2022-10-06T23:06:23.873Z,101782.19
2022-10-06T23:09:31.849Z,101774.88
2022-10-06T23:12:40.439Z,101760.91
2022-10-06T23:15:54.882Z,101766.81
2022-10-06T23:19:03.476Z,101770.59
2022-10-06T23:22:11.845Z,101768.41
2022-10-06T23:25:27.439Z,101779.22
2022-10-06T23:28:35.893Z,101766.28
2022-10-06T23:31:50.950Z,101759.56
2022-10-06T23:34:59.401Z,101766.03
2022-10-06T23:38:20.889Z,101763.62
2022-10-06T23:41:35.867Z,101775.47
2022-10-06T23:44:44.425Z,101770.06
2022-10-06T23:47:52.861Z,101753.94
2022-10-06T23:51:04.290Z,101769.81
2022-10-06T23:54:18.864Z,101777.06
2022-10-06T23:57:20.763Z,101774.66
